KINS

Details ICAO KINS (INS)
Name CREECH AFB
Region United States
Timezone America/Los_Angeles (UTC-8.0)
Plans Departing 6
Arriving 2
Stats Elevation 3,133 ft / 955 m (AMSL)
Location 36.586675° -115.676579°
Runways 2
Magnetic Variation 11.981° E
Sunrise 2016-12-02 14:39:14 UTC / 2016-12-02 06:39:14 Local
Sunset 2016-12-03 00:28:31 UTC / 2016-12-02 16:28:31 Local
Advertisement - Login to hide

Runways

ID Width Length Bearing (true) Bearing (mag) Surface Threshold Offset Overrun Length
08 150 ft / 46 m 8,984 ft / 2,738 m 92.33° 80.35° Asphalt 0 ft / 0 m 1,000 ft / 305 m
13 100 ft / 30 m 4,896 ft / 1,492 m 145.01° 133.03° Asphalt 468 ft / 143 m 450 ft / 137 m
26 150 ft / 46 m 8,984 ft / 2,738 m 272.35° 260.37° Asphalt 0 ft / 0 m 1,000 ft / 305 m
31 100 ft / 30 m 4,896 ft / 1,492 m 325.02° 313.04° Asphalt 0 ft / 0 m 300 ft / 91 m

Map

Weather

Temperature
Clouds and Precipitation
Forecast for 2016-12-03 06:00 UTC. Updated an hour ago
Winds

METAR

KINS 030158Z AUTO 04013KT 10SM CLR 06/M14 A3017 RMK AO2 SLP215 T00631140 $

TAF

TAF AMD KINS 021840Z 0218/0321 35009KT 9999 FEW090 QNH3009INS TEMPO 0218/0301 01015G25KT 510009 BECMG 0300/0301 03012KT 9999 SKC QNH3012INS BECMG 0314/0315 32009KT 9999 SKC QNH3022INS TX10/0221Z TNM03/0314Z

Frequencies

Recorded 121.12 MHz ASOS
Tower 118.30 MHz TWR
Ground 118.30 MHz GND
Warning: Do not use this data for real-world aviation or navigation. No guarantee of current accuracy is given.